sensor_id;sensor_type;location;lat;lon;timestamp;P1;durP1;ratioP1;P2;durP2;ratioP2
21202;SDS011;10759;51.982;9.232;2023-05-07T00:00:59;28.05;;;25.42;;
21202;SDS011;10759;51.982;9.232;2023-05-07T00:03:28;29.58;;;26.55;;
21202;SDS011;10759;51.982;9.232;2023-05-07T00:05:56;31.27;;;28.27;;
21202;SDS011;10759;51.982;9.232;2023-05-07T00:08:24;28.38;;;25.45;;
21202;SDS011;10759;51.982;9.232;2023-05-07T00:10:53;28.48;;;25.80;;
21202;SDS011;10759;51.982;9.232;2023-05-07T00:13:21;29.13;;;26.23;;
21202;SDS011;10759;51.982;9.232;2023-05-07T00:15:49;30.45;;;27.45;;
21202;SDS011;10759;51.982;9.232;2023-05-07T00:18:17;29.27;;;26.33;;
21202;SDS011;10759;51.982;9.232;2023-05-07T00:20:47;30.70;;;27.90;;
21202;SDS011;10759;51.982;9.232;2023-05-07T00:23:15;31.23;;;28.23;;
21202;SDS011;10759;51.982;9.232;2023-05-07T00:25:43;29.52;;;26.75;;
21202;SDS011;10759;51.982;9.232;2023-05-07T00:28:12;30.45;;;25.35;;
21202;SDS011;10759;51.982;9.232;2023-05-07T00:30:40;30.25;;;27.27;;
21202;SDS011;10759;51.982;9.232;2023-05-07T00:33:08;29.83;;;26.52;;
21202;SDS011;10759;51.982;9.232;2023-05-07T00:35:36;30.33;;;27.52;;
21202;SDS011;10759;51.982;9.232;2023-05-07T00:38:03;29.98;;;27.10;;
21202;SDS011;10759;51.982;9.232;2023-05-07T00:40:32;29.20;;;26.25;;
21202;SDS011;10759;51.982;9.232;2023-05-07T00:43:00;30.98;;;27.58;;
21202;SDS011;10759;51.982;9.232;2023-05-07T00:45:29;29.88;;;26.83;;
21202;SDS011;10759;51.982;9.232;2023-05-07T00:47:57;30.90;;;27.75;;
21202;SDS011;10759;51.982;9.232;2023-05-07T00:50:27;35.25;;;31.98;;
21202;SDS011;10759;51.982;9.232;2023-05-07T00:52:56;31.30;;;28.13;;
21202;SDS011;10759;51.982;9.232;2023-05-07T00:55:24;32.38;;;28.90;;
21202;SDS011;10759;51.982;9.232;2023-05-07T00:57:52;31.90;;;28.65;;
21202;SDS011;10759;51.982;9.232;2023-05-07T01:00:19;30.67;;;27.85;;
21202;SDS011;10759;51.982;9.232;2023-05-07T01:02:49;32.28;;;28.98;;
21202;SDS011;10759;51.982;9.232;2023-05-07T01:05:17;31.90;;;28.95;;
21202;SDS011;10759;51.982;9.232;2023-05-07T01:07:48;31.60;;;28.48;;
21202;SDS011;10759;51.982;9.232;2023-05-07T01:10:17;29.40;;;26.50;;
21202;SDS011;10759;51.982;9.232;2023-05-07T01:12:45;31.85;;;28.52;;
21202;SDS011;10759;51.982;9.232;2023-05-07T01:15:15;34.53;;;30.88;;
21202;SDS011;10759;51.982;9.232;2023-05-07T01:17:43;33.67;;;30.38;;
21202;SDS011;10759;51.982;9.232;2023-05-07T01:20:20;32.13;;;29.10;;
21202;SDS011;10759;51.982;9.232;2023-05-07T01:22:53;32.78;;;29.25;;
21202;SDS011;10759;51.982;9.232;2023-05-07T01:25:22;33.00;;;29.60;;
21202;SDS011;10759;51.982;9.232;2023-05-07T01:27:55;32.97;;;29.67;;
21202;SDS011;10759;51.982;9.232;2023-05-07T01:30:27;33.50;;;30.25;;
21202;SDS011;10759;51.982;9.232;2023-05-07T01:32:58;34.10;;;29.92;;
21202;SDS011;10759;51.982;9.232;2023-05-07T01:35:32;31.00;;;27.92;;
21202;SDS011;10759;51.982;9.232;2023-05-07T01:38:06;34.22;;;30.50;;
21202;SDS011;10759;51.982;9.232;2023-05-07T01:40:35;32.63;;;29.52;;
21202;SDS011;10759;51.982;9.232;2023-05-07T01:43:03;32.97;;;29.65;;
21202;SDS011;10759;51.982;9.232;2023-05-07T01:45:34;31.42;;;28.38;;
21202;SDS011;10759;51.982;9.232;2023-05-07T01:48:03;32.40;;;29.30;;
21202;SDS011;10759;51.982;9.232;2023-05-07T01:50:32;32.40;;;29.20;;
21202;SDS011;10759;51.982;9.232;2023-05-07T01:53:01;32.22;;;28.98;;
21202;SDS011;10759;51.982;9.232;2023-05-07T01:55:30;32.22;;;29.02;;
21202;SDS011;10759;51.982;9.232;2023-05-07T01:57:58;31.15;;;28.00;;
21202;SDS011;10759;51.982;9.232;2023-05-07T02:00:26;34.00;;;30.70;;
21202;SDS011;10759;51.982;9.232;2023-05-07T02:02:55;32.63;;;29.35;;
21202;SDS011;10759;51.982;9.232;2023-05-07T02:05:34;32.80;;;29.67;;
21202;SDS011;10759;51.982;9.232;2023-05-07T02:08:09;33.33;;;30.15;;
21202;SDS011;10759;51.982;9.232;2023-05-07T02:10:38;32.72;;;29.25;;
21202;SDS011;10759;51.982;9.232;2023-05-07T02:13:06;33.60;;;30.05;;
21202;SDS011;10759;51.982;9.232;2023-05-07T02:15:35;32.92;;;29.70;;
21202;SDS011;10759;51.982;9.232;2023-05-07T02:18:04;30.33;;;27.35;;
21202;SDS011;10759;51.982;9.232;2023-05-07T02:20:33;30.55;;;27.65;;
21202;SDS011;10759;51.982;9.232;2023-05-07T02:23:01;32.22;;;28.90;;
21202;SDS011;10759;51.982;9.232;2023-05-07T02:25:29;33.08;;;29.88;;
21202;SDS011;10759;51.982;9.232;2023-05-07T02:27:59;33.00;;;29.70;;
21202;SDS011;10759;51.982;9.232;2023-05-07T02:30:38;34.35;;;31.08;;
21202;SDS011;10759;51.982;9.232;2023-05-07T02:33:07;31.00;;;27.92;;
21202;SDS011;10759;51.982;9.232;2023-05-07T02:35:35;34.10;;;30.73;;
21202;SDS011;10759;51.982;9.232;2023-05-07T02:38:03;33.28;;;29.88;;
21202;SDS011;10759;51.982;9.232;2023-05-07T02:40:32;33.72;;;30.40;;
21202;SDS011;10759;51.982;9.232;2023-05-07T02:43:06;35.90;;;32.28;;
21202;SDS011;10759;51.982;9.232;2023-05-07T02:45:34;37.05;;;32.53;;
21202;SDS011;10759;51.982;9.232;2023-05-07T02:48:05;34.42;;;31.13;;
21202;SDS011;10759;51.982;9.232;2023-05-07T02:50:33;33.30;;;30.15;;
21202;SDS011;10759;51.982;9.232;2023-05-07T02:53:01;33.55;;;30.52;;
21202;SDS011;10759;51.982;9.232;2023-05-07T02:55:29;33.05;;;29.40;;
21202;SDS011;10759;51.982;9.232;2023-05-07T02:57:57;33.72;;;30.38;;
21202;SDS011;10759;51.982;9.232;2023-05-07T03:00:27;34.55;;;31.42;;
21202;SDS011;10759;51.982;9.232;2023-05-07T03:03:10;33.92;;;30.80;;
21202;SDS011;10759;51.982;9.232;2023-05-07T03:05:39;34.85;;;31.45;;
21202;SDS011;10759;51.982;9.232;2023-05-07T03:08:07;37.33;;;33.67;;
21202;SDS011;10759;51.982;9.232;2023-05-07T03:10:35;34.20;;;31.00;;
21202;SDS011;10759;51.982;9.232;2023-05-07T03:13:04;35.03;;;31.42;;
21202;SDS011;10759;51.982;9.232;2023-05-07T03:15:33;36.10;;;32.23;;
21202;SDS011;10759;51.982;9.232;2023-05-07T03:18:01;35.28;;;30.88;;
21202;SDS011;10759;51.982;9.232;2023-05-07T03:20:30;35.33;;;31.77;;
21202;SDS011;10759;51.982;9.232;2023-05-07T03:22:58;37.45;;;33.80;;
21202;SDS011;10759;51.982;9.232;2023-05-07T03:25:26;36.28;;;32.47;;
21202;SDS011;10759;51.982;9.232;2023-05-07T03:27:55;35.10;;;31.42;;
21202;SDS011;10759;51.982;9.232;2023-05-07T03:30:29;35.45;;;31.75;;
21202;SDS011;10759;51.982;9.232;2023-05-07T03:32:58;36.95;;;33.13;;
21202;SDS011;10759;51.982;9.232;2023-05-07T03:35:27;39.00;;;35.05;;
21202;SDS011;10759;51.982;9.232;2023-05-07T03:37:55;40.08;;;36.00;;
21202;SDS011;10759;51.982;9.232;2023-05-07T03:40:28;40.17;;;36.22;;
21202;SDS011;10759;51.982;9.232;2023-05-07T03:42:56;40.80;;;36.70;;
21202;SDS011;10759;51.982;9.232;2023-05-07T03:45:25;42.90;;;38.38;;
21202;SDS011;10759;51.982;9.232;2023-05-07T03:50:36;41.28;;;37.10;;
21202;SDS011;10759;51.982;9.232;2023-05-07T03:53:06;41.97;;;37.55;;
21202;SDS011;10759;51.982;9.232;2023-05-07T03:55:37;43.65;;;38.90;;
21202;SDS011;10759;51.982;9.232;2023-05-07T03:58:05;43.53;;;38.88;;
21202;SDS011;10759;51.982;9.232;2023-05-07T04:00:33;43.10;;;38.55;;
21202;SDS011;10759;51.982;9.232;2023-05-07T04:03:14;42.60;;;38.33;;
21202;SDS011;10759;51.982;9.232;2023-05-07T04:05:42;43.27;;;38.53;;
21202;SDS011;10759;51.982;9.232;2023-05-07T04:08:10;40.33;;;36.03;;
21202;SDS011;10759;51.982;9.232;2023-05-07T04:10:41;39.65;;;35.42;;
21202;SDS011;10759;51.982;9.232;2023-05-07T04:13:10;42.10;;;37.55;;
21202;SDS011;10759;51.982;9.232;2023-05-07T04:15:38;45.72;;;36.22;;
21202;SDS011;10759;51.982;9.232;2023-05-07T04:18:09;41.80;;;37.22;;
21202;SDS011;10759;51.982;9.232;2023-05-07T04:20:39;43.17;;;36.03;;
21202;SDS011;10759;51.982;9.232;2023-05-07T04:23:11;40.40;;;36.10;;
21202;SDS011;10759;51.982;9.232;2023-05-07T04:25:39;41.78;;;37.35;;
21202;SDS011;10759;51.982;9.232;2023-05-07T04:28:19;38.45;;;34.50;;
21202;SDS011;10759;51.982;9.232;2023-05-07T04:30:48;41.80;;;36.65;;
21202;SDS011;10759;51.982;9.232;2023-05-07T04:33:16;43.08;;;37.67;;
21202;SDS011;10759;51.982;9.232;2023-05-07T04:35:47;42.17;;;37.67;;
21202;SDS011;10759;51.982;9.232;2023-05-07T04:38:15;39.75;;;35.40;;
21202;SDS011;10759;51.982;9.232;2023-05-07T04:40:46;42.67;;;36.80;;
21202;SDS011;10759;51.982;9.232;2023-05-07T04:43:19;39.88;;;35.58;;
21202;SDS011;10759;51.982;9.232;2023-05-07T04:45:49;42.55;;;36.92;;
21202;SDS011;10759;51.982;9.232;2023-05-07T04:48:20;43.17;;;38.75;;
21202;SDS011;10759;51.982;9.232;2023-05-07T04:50:51;47.58;;;42.42;;
21202;SDS011;10759;51.982;9.232;2023-05-07T04:53:20;45.55;;;40.65;;
21202;SDS011;10759;51.982;9.232;2023-05-07T04:55:54;44.58;;;38.38;;
21202;SDS011;10759;51.982;9.232;2023-05-07T04:58:24;47.08;;;38.20;;
21202;SDS011;10759;51.982;9.232;2023-05-07T05:00:52;42.38;;;37.80;;
21202;SDS011;10759;51.982;9.232;2023-05-07T05:03:20;43.28;;;38.33;;
21202;SDS011;10759;51.982;9.232;2023-05-07T05:05:49;41.58;;;37.05;;
21202;SDS011;10759;51.982;9.232;2023-05-07T05:08:21;38.63;;;34.50;;
21202;SDS011;10759;51.982;9.232;2023-05-07T05:10:50;38.60;;;34.35;;
21202;SDS011;10759;51.982;9.232;2023-05-07T05:13:17;39.63;;;33.78;;
21202;SDS011;10759;51.982;9.232;2023-05-07T05:15:46;37.50;;;33.42;;
21202;SDS011;10759;51.982;9.232;2023-05-07T05:18:14;36.83;;;32.90;;
21202;SDS011;10759;51.982;9.232;2023-05-07T05:20:42;37.13;;;33.28;;
21202;SDS011;10759;51.982;9.232;2023-05-07T05:23:12;36.95;;;33.08;;
21202;SDS011;10759;51.982;9.232;2023-05-07T05:25:40;37.40;;;33.50;;
21202;SDS011;10759;51.982;9.232;2023-05-07T05:30:39;32.22;;;28.92;;
21202;SDS011;10759;51.982;9.232;2023-05-07T05:33:07;31.92;;;28.60;;
21202;SDS011;10759;51.982;9.232;2023-05-07T05:35:35;29.13;;;26.30;;
21202;SDS011;10759;51.982;9.232;2023-05-07T05:38:08;30.45;;;27.27;;
21202;SDS011;10759;51.982;9.232;2023-05-07T05:40:38;29.73;;;26.58;;
21202;SDS011;10759;51.982;9.232;2023-05-07T05:43:06;29.60;;;26.50;;
21202;SDS011;10759;51.982;9.232;2023-05-07T05:45:36;28.52;;;25.63;;
21202;SDS011;10759;51.982;9.232;2023-05-07T05:48:05;27.52;;;24.75;;
21202;SDS011;10759;51.982;9.232;2023-05-07T05:50:34;26.88;;;24.23;;
21202;SDS011;10759;51.982;9.232;2023-05-07T05:53:04;26.58;;;24.08;;
21202;SDS011;10759;51.982;9.232;2023-05-07T05:55:32;24.85;;;22.00;;
21202;SDS011;10759;51.982;9.232;2023-05-07T05:58:02;26.98;;;24.30;;
21202;SDS011;10759;51.982;9.232;2023-05-07T06:00:34;25.00;;;22.48;;
21202;SDS011;10759;51.982;9.232;2023-05-07T06:03:04;24.92;;;22.48;;
21202;SDS011;10759;51.982;9.232;2023-05-07T06:05:33;23.58;;;21.38;;
21202;SDS011;10759;51.982;9.232;2023-05-07T06:08:01;24.67;;;22.20;;
21202;SDS011;10759;51.982;9.232;2023-05-07T06:10:32;24.52;;;22.15;;
21202;SDS011;10759;51.982;9.232;2023-05-07T06:13:01;22.38;;;20.38;;
21202;SDS011;10759;51.982;9.232;2023-05-07T06:15:31;22.63;;;20.40;;
21202;SDS011;10759;51.982;9.232;2023-05-07T06:18:04;21.10;;;18.92;;
21202;SDS011;10759;51.982;9.232;2023-05-07T06:20:32;21.08;;;19.10;;
21202;SDS011;10759;51.982;9.232;2023-05-07T06:23:03;19.25;;;17.55;;
21202;SDS011;10759;51.982;9.232;2023-05-07T06:25:33;19.37;;;17.57;;
21202;SDS011;10759;51.982;9.232;2023-05-07T06:28:02;18.60;;;17.00;;
21202;SDS011;10759;51.982;9.232;2023-05-07T06:30:32;16.02;;;14.52;;
21202;SDS011;10759;51.982;9.232;2023-05-07T06:33:00;15.88;;;14.45;;
21202;SDS011;10759;51.982;9.232;2023-05-07T06:35:28;16.27;;;14.80;;
21202;SDS011;10759;51.982;9.232;2023-05-07T06:37:56;15.32;;;14.02;;
21202;SDS011;10759;51.982;9.232;2023-05-07T06:40:26;14.95;;;13.65;;
21202;SDS011;10759;51.982;9.232;2023-05-07T06:42:55;14.03;;;12.83;;
21202;SDS011;10759;51.982;9.232;2023-05-07T06:45:42;14.38;;;13.02;;
21202;SDS011;10759;51.982;9.232;2023-05-07T06:48:10;14.63;;;13.43;;
21202;SDS011;10759;51.982;9.232;2023-05-07T06:51:03;13.93;;;12.65;;
21202;SDS011;10759;51.982;9.232;2023-05-07T06:53:31;13.25;;;11.95;;
21202;SDS011;10759;51.982;9.232;2023-05-07T06:56:01;12.50;;;11.27;;
21202;SDS011;10759;51.982;9.232;2023-05-07T06:58:29;13.27;;;12.07;;
21202;SDS011;10759;51.982;9.232;2023-05-07T07:00:58;13.38;;;12.27;;
21202;SDS011;10759;51.982;9.232;2023-05-07T07:03:26;13.07;;;11.88;;
21202;SDS011;10759;51.982;9.232;2023-05-07T07:05:55;12.57;;;11.48;;
21202;SDS011;10759;51.982;9.232;2023-05-07T07:08:23;13.80;;;12.50;;
21202;SDS011;10759;51.982;9.232;2023-05-07T07:10:51;12.93;;;11.77;;
21202;SDS011;10759;51.982;9.232;2023-05-07T07:13:19;12.50;;;11.45;;
21202;SDS011;10759;51.982;9.232;2023-05-07T07:15:47;12.15;;;11.15;;
21202;SDS011;10759;51.982;9.232;2023-05-07T07:18:18;12.65;;;11.55;;
21202;SDS011;10759;51.982;9.232;2023-05-07T07:20:47;12.63;;;11.55;;
21202;SDS011;10759;51.982;9.232;2023-05-07T07:23:15;11.52;;;10.63;;
21202;SDS011;10759;51.982;9.232;2023-05-07T07:25:43;12.82;;;11.82;;
21202;SDS011;10759;51.982;9.232;2023-05-07T07:28:12;12.02;;;11.13;;
21202;SDS011;10759;51.982;9.232;2023-05-07T07:30:40;13.02;;;11.93;;
21202;SDS011;10759;51.982;9.232;2023-05-07T07:33:09;13.93;;;12.82;;
21202;SDS011;10759;51.982;9.232;2023-05-07T07:35:39;12.68;;;11.60;;
21202;SDS011;10759;51.982;9.232;2023-05-07T07:38:07;13.93;;;12.73;;
21202;SDS011;10759;51.982;9.232;2023-05-07T07:40:35;13.10;;;12.00;;
21202;SDS011;10759;51.982;9.232;2023-05-07T07:43:05;13.35;;;12.18;;
21202;SDS011;10759;51.982;9.232;2023-05-07T07:45:33;12.60;;;11.60;;
21202;SDS011;10759;51.982;9.232;2023-05-07T07:48:01;12.48;;;11.48;;
21202;SDS011;10759;51.982;9.232;2023-05-07T07:50:34;12.77;;;11.68;;
21202;SDS011;10759;51.982;9.232;2023-05-07T07:53:12;12.95;;;11.95;;
21202;SDS011;10759;51.982;9.232;2023-05-07T07:55:41;12.88;;;11.88;;
21202;SDS011;10759;51.982;9.232;2023-05-07T07:58:12;13.10;;;12.00;;
21202;SDS011;10759;51.982;9.232;2023-05-07T08:00:40;13.15;;;12.07;;
21202;SDS011;10759;51.982;9.232;2023-05-07T08:03:09;12.60;;;11.60;;
21202;SDS011;10759;51.982;9.232;2023-05-07T08:05:42;13.32;;;12.23;;
21202;SDS011;10759;51.982;9.232;2023-05-07T08:08:10;13.10;;;11.93;;
21202;SDS011;10759;51.982;9.232;2023-05-07T08:10:41;11.93;;;10.93;;
21202;SDS011;10759;51.982;9.232;2023-05-07T08:13:16;12.60;;;11.50;;
21202;SDS011;10759;51.982;9.232;2023-05-07T08:15:45;12.70;;;11.60;;
21202;SDS011;10759;51.982;9.232;2023-05-07T08:18:13;12.02;;;11.00;;
21202;SDS011;10759;51.982;9.232;2023-05-07T08:20:43;12.40;;;11.40;;
21202;SDS011;10759;51.982;9.232;2023-05-07T08:23:15;12.75;;;11.65;;
21202;SDS011;10759;51.982;9.232;2023-05-07T08:25:45;11.82;;;10.82;;
21202;SDS011;10759;51.982;9.232;2023-05-07T08:28:16;11.15;;;10.25;;
21202;SDS011;10759;51.982;9.232;2023-05-07T08:30:46;13.00;;;12.00;;
21202;SDS011;10759;51.982;9.232;2023-05-07T08:33:14;12.77;;;11.60;;
21202;SDS011;10759;51.982;9.232;2023-05-07T08:35:42;10.85;;;9.95;;
21202;SDS011;10759;51.982;9.232;2023-05-07T08:38:12;11.77;;;10.65;;
21202;SDS011;10759;51.982;9.232;2023-05-07T08:40:41;9.95;;;9.02;;
21202;SDS011;10759;51.982;9.232;2023-05-07T08:43:16;10.00;;;9.20;;
21202;SDS011;10759;51.982;9.232;2023-05-07T08:45:45;10.18;;;9.25;;
21202;SDS011;10759;51.982;9.232;2023-05-07T08:48:18;9.55;;;8.85;;
21202;SDS011;10759;51.982;9.232;2023-05-07T08:50:55;9.25;;;8.35;;
21202;SDS011;10759;51.982;9.232;2023-05-07T08:53:25;9.63;;;8.82;;
21202;SDS011;10759;51.982;9.232;2023-05-07T08:55:53;8.30;;;7.60;;
21202;SDS011;10759;51.982;9.232;2023-05-07T08:58:23;7.28;;;6.70;;
21202;SDS011;10759;51.982;9.232;2023-05-07T09:00:51;8.02;;;7.43;;
21202;SDS011;10759;51.982;9.232;2023-05-07T09:03:22;7.93;;;7.13;;
21202;SDS011;10759;51.982;9.232;2023-05-07T09:05:53;7.63;;;7.03;;
21202;SDS011;10759;51.982;9.232;2023-05-07T09:08:24;7.07;;;6.47;;
21202;SDS011;10759;51.982;9.232;2023-05-07T09:10:55;6.65;;;6.15;;
21202;SDS011;10759;51.982;9.232;2023-05-07T09:13:24;7.10;;;6.50;;
21202;SDS011;10759;51.982;9.232;2023-05-07T09:15:54;6.60;;;6.10;;
21202;SDS011;10759;51.982;9.232;2023-05-07T09:18:24;6.45;;;6.00;;
21202;SDS011;10759;51.982;9.232;2023-05-07T09:20:54;6.43;;;5.85;;
21202;SDS011;10759;51.982;9.232;2023-05-07T09:23:23;6.53;;;6.03;;
21202;SDS011;10759;51.982;9.232;2023-05-07T09:25:52;5.93;;;5.53;;
21202;SDS011;10759;51.982;9.232;2023-05-07T09:28:32;6.57;;;5.97;;
21202;SDS011;10759;51.982;9.232;2023-05-07T09:31:00;5.50;;;5.05;;
21202;SDS011;10759;51.982;9.232;2023-05-07T09:33:28;6.00;;;5.60;;
21202;SDS011;10759;51.982;9.232;2023-05-07T09:36:02;5.78;;;5.38;;
21202;SDS011;10759;51.982;9.232;2023-05-07T09:38:32;5.78;;;5.38;;
21202;SDS011;10759;51.982;9.232;2023-05-07T09:41:04;6.05;;;5.50;;
21202;SDS011;10759;51.982;9.232;2023-05-07T09:43:41;6.20;;;5.70;;
21202;SDS011;10759;51.982;9.232;2023-05-07T09:46:12;5.97;;;5.47;;
21202;SDS011;10759;51.982;9.232;2023-05-07T09:48:48;6.10;;;5.55;;
21202;SDS011;10759;51.982;9.232;2023-05-07T09:51:21;6.07;;;5.68;;
21202;SDS011;10759;51.982;9.232;2023-05-07T09:53:54;6.18;;;5.68;;
21202;SDS011;10759;51.982;9.232;2023-05-07T09:56:24;5.95;;;5.53;;
21202;SDS011;10759;51.982;9.232;2023-05-07T09:58:55;6.32;;;5.82;;
21202;SDS011;10759;51.982;9.232;2023-05-07T10:01:25;6.00;;;5.57;;
21202;SDS011;10759;51.982;9.232;2023-05-07T10:03:54;5.78;;;5.38;;
21202;SDS011;10759;51.982;9.232;2023-05-07T10:06:24;6.22;;;5.72;;
21202;SDS011;10759;51.982;9.232;2023-05-07T10:08:53;6.38;;;5.88;;
21202;SDS011;10759;51.982;9.232;2023-05-07T10:11:22;6.63;;;6.13;;
21202;SDS011;10759;51.982;9.232;2023-05-07T10:13:50;5.60;;;5.25;;
21202;SDS011;10759;51.982;9.232;2023-05-07T10:16:21;6.82;;;6.28;;
21202;SDS011;10759;51.982;9.232;2023-05-07T10:18:50;6.50;;;5.90;;
21202;SDS011;10759;51.982;9.232;2023-05-07T10:21:23;6.90;;;6.40;;
21202;SDS011;10759;51.982;9.232;2023-05-07T10:23:57;6.40;;;5.88;;
21202;SDS011;10759;51.982;9.232;2023-05-07T10:26:29;7.13;;;6.63;;
21202;SDS011;10759;51.982;9.232;2023-05-07T10:29:01;7.40;;;6.80;;
21202;SDS011;10759;51.982;9.232;2023-05-07T10:31:41;6.40;;;5.90;;
21202;SDS011;10759;51.982;9.232;2023-05-07T10:34:19;6.20;;;5.70;;
21202;SDS011;10759;51.982;9.232;2023-05-07T10:36:50;7.00;;;6.43;;
21202;SDS011;10759;51.982;9.232;2023-05-07T10:39:20;6.25;;;5.80;;
21202;SDS011;10759;51.982;9.232;2023-05-07T10:41:49;6.28;;;5.78;;
21202;SDS011;10759;51.982;9.232;2023-05-07T10:44:27;6.43;;;5.93;;
21202;SDS011;10759;51.982;9.232;2023-05-07T10:47:05;6.30;;;5.90;;
21202;SDS011;10759;51.982;9.232;2023-05-07T10:49:46;6.53;;;6.03;;
21202;SDS011;10759;51.982;9.232;2023-05-07T10:56:25;7.30;;;6.57;;
21202;SDS011;10759;51.982;9.232;2023-05-07T11:02:30;6.55;;;6.05;;
21202;SDS011;10759;51.982;9.232;2023-05-07T11:06:10;7.10;;;6.40;;
21202;SDS011;10759;51.982;9.232;2023-05-07T11:09:08;7.32;;;6.82;;
21202;SDS011;10759;51.982;9.232;2023-05-07T11:11:45;7.30;;;6.70;;
21202;SDS011;10759;51.982;9.232;2023-05-07T11:17:28;6.55;;;6.05;;
21202;SDS011;10759;51.982;9.232;2023-05-07T11:20:08;8.20;;;7.50;;
21202;SDS011;10759;51.982;9.232;2023-05-07T11:22:43;6.80;;;6.22;;
21202;SDS011;10759;51.982;9.232;2023-05-07T11:25:34;7.25;;;6.55;;
21202;SDS011;10759;51.982;9.232;2023-05-07T11:28:15;7.32;;;6.72;;
21202;SDS011;10759;51.982;9.232;2023-05-07T11:30:54;8.27;;;7.57;;
21202;SDS011;10759;51.982;9.232;2023-05-07T11:33:24;7.07;;;6.57;;
21202;SDS011;10759;51.982;9.232;2023-05-07T11:35:56;7.47;;;6.93;;
21202;SDS011;10759;51.982;9.232;2023-05-07T11:38:33;7.47;;;6.85;;
21202;SDS011;10759;51.982;9.232;2023-05-07T11:41:02;8.85;;;7.78;;
21202;SDS011;10759;51.982;9.232;2023-05-07T11:43:31;8.05;;;7.40;;
21202;SDS011;10759;51.982;9.232;2023-05-07T11:46:05;7.40;;;6.90;;
21202;SDS011;10759;51.982;9.232;2023-05-07T11:48:34;8.27;;;7.68;;
21202;SDS011;10759;51.982;9.232;2023-05-07T11:51:04;8.73;;;8.13;;
21202;SDS011;10759;51.982;9.232;2023-05-07T11:53:35;10.13;;;9.25;;
21202;SDS011;10759;51.982;9.232;2023-05-07T11:56:07;8.32;;;7.72;;
21202;SDS011;10759;51.982;9.232;2023-05-07T11:58:36;8.77;;;8.07;;
21202;SDS011;10759;51.982;9.232;2023-05-07T12:01:06;9.35;;;8.65;;
21202;SDS011;10759;51.982;9.232;2023-05-07T12:03:35;10.52;;;9.52;;
21202;SDS011;10759;51.982;9.232;2023-05-07T12:06:06;9.70;;;9.00;;
21202;SDS011;10759;51.982;9.232;2023-05-07T12:08:36;9.95;;;8.95;;
21202;SDS011;10759;51.982;9.232;2023-05-07T12:11:06;9.98;;;9.18;;
21202;SDS011;10759;51.982;9.232;2023-05-07T12:13:36;9.32;;;8.63;;
21202;SDS011;10759;51.982;9.232;2023-05-07T12:16:04;9.65;;;8.95;;
21202;SDS011;10759;51.982;9.232;2023-05-07T12:18:34;10.35;;;9.55;;
21202;SDS011;10759;51.982;9.232;2023-05-07T12:23:34;9.85;;;8.95;;
21202;SDS011;10759;51.982;9.232;2023-05-07T12:26:03;10.68;;;9.68;;
21202;SDS011;10759;51.982;9.232;2023-05-07T12:28:37;10.77;;;9.80;;
21202;SDS011;10759;51.982;9.232;2023-05-07T12:31:06;9.77;;;9.02;;
21202;SDS011;10759;51.982;9.232;2023-05-07T12:33:34;10.50;;;9.60;;
21202;SDS011;10759;51.982;9.232;2023-05-07T12:36:03;10.85;;;10.05;;
21202;SDS011;10759;51.982;9.232;2023-05-07T12:38:36;9.98;;;9.18;;
21202;SDS011;10759;51.982;9.232;2023-05-07T12:41:06;9.65;;;8.75;;
21202;SDS011;10759;51.982;9.232;2023-05-07T12:43:34;9.00;;;8.30;;
21202;SDS011;10759;51.982;9.232;2023-05-07T12:46:03;9.15;;;8.45;;
21202;SDS011;10759;51.982;9.232;2023-05-07T12:48:36;9.38;;;8.57;;
21202;SDS011;10759;51.982;9.232;2023-05-07T12:51:05;9.02;;;8.23;;
21202;SDS011;10759;51.982;9.232;2023-05-07T12:53:34;9.43;;;8.73;;
21202;SDS011;10759;51.982;9.232;2023-05-07T12:56:08;9.90;;;9.10;;
21202;SDS011;10759;51.982;9.232;2023-05-07T12:58:36;8.65;;;7.85;;
21202;SDS011;10759;51.982;9.232;2023-05-07T13:01:05;9.35;;;8.65;;
21202;SDS011;10759;51.982;9.232;2023-05-07T13:03:34;9.75;;;9.02;;
21202;SDS011;10759;51.982;9.232;2023-05-07T13:06:04;9.30;;;8.50;;
21202;SDS011;10759;51.982;9.232;2023-05-07T13:08:33;8.50;;;7.82;;
21202;SDS011;10759;51.982;9.232;2023-05-07T13:11:04;9.13;;;8.43;;
21202;SDS011;10759;51.982;9.232;2023-05-07T13:13:35;8.27;;;7.68;;
21202;SDS011;10759;51.982;9.232;2023-05-07T13:16:07;7.80;;;7.10;;
21202;SDS011;10759;51.982;9.232;2023-05-07T13:18:37;9.13;;;8.45;;
21202;SDS011;10759;51.982;9.232;2023-05-07T13:21:07;7.55;;;7.05;;
21202;SDS011;10759;51.982;9.232;2023-05-07T13:23:35;9.00;;;8.20;;
21202;SDS011;10759;51.982;9.232;2023-05-07T13:26:06;7.25;;;6.72;;
21202;SDS011;10759;51.982;9.232;2023-05-07T13:28:51;8.25;;;7.65;;
21202;SDS011;10759;51.982;9.232;2023-05-07T13:31:19;9.50;;;8.68;;
21202;SDS011;10759;51.982;9.232;2023-05-07T13:33:47;8.30;;;7.72;;
21202;SDS011;10759;51.982;9.232;2023-05-07T13:36:15;8.30;;;7.60;;
21202;SDS011;10759;51.982;9.232;2023-05-07T13:38:43;8.32;;;7.20;;
21202;SDS011;10759;51.982;9.232;2023-05-07T13:41:14;7.25;;;6.63;;
21202;SDS011;10759;51.982;9.232;2023-05-07T13:43:42;7.70;;;7.10;;
21202;SDS011;10759;51.982;9.232;2023-05-07T13:46:09;8.70;;;7.90;;
21202;SDS011;10759;51.982;9.232;2023-05-07T13:48:38;6.97;;;6.47;;
21202;SDS011;10759;51.982;9.232;2023-05-07T13:51:06;7.70;;;7.20;;
21202;SDS011;10759;51.982;9.232;2023-05-07T13:53:34;7.80;;;7.18;;
21202;SDS011;10759;51.982;9.232;2023-05-07T13:56:01;8.15;;;7.43;;
21202;SDS011;10759;51.982;9.232;2023-05-07T13:58:32;8.75;;;8.05;;
21202;SDS011;10759;51.982;9.232;2023-05-07T14:01:03;8.05;;;7.45;;
21202;SDS011;10759;51.982;9.232;2023-05-07T14:03:31;8.35;;;7.63;;
21202;SDS011;10759;51.982;9.232;2023-05-07T14:06:00;8.82;;;8.13;;
21202;SDS011;10759;51.982;9.232;2023-05-07T14:08:28;8.63;;;8.02;;
21202;SDS011;10759;51.982;9.232;2023-05-07T14:10:57;8.73;;;8.02;;
21202;SDS011;10759;51.982;9.232;2023-05-07T14:13:25;8.50;;;7.90;;
21202;SDS011;10759;51.982;9.232;2023-05-07T14:15:55;9.48;;;8.75;;
21202;SDS011;10759;51.982;9.232;2023-05-07T14:18:23;9.02;;;8.23;;
21202;SDS011;10759;51.982;9.232;2023-05-07T14:20:51;11.25;;;10.38;;
21202;SDS011;10759;51.982;9.232;2023-05-07T14:23:19;10.48;;;9.68;;
21202;SDS011;10759;51.982;9.232;2023-05-07T14:25:52;11.30;;;10.50;;
21202;SDS011;10759;51.982;9.232;2023-05-07T14:28:19;11.50;;;10.63;;
21202;SDS011;10759;51.982;9.232;2023-05-07T14:30:47;9.50;;;8.80;;
21202;SDS011;10759;51.982;9.232;2023-05-07T14:33:17;9.15;;;8.45;;
21202;SDS011;10759;51.982;9.232;2023-05-07T14:35:45;8.90;;;8.20;;
21202;SDS011;10759;51.982;9.232;2023-05-07T14:38:15;9.18;;;8.48;;
21202;SDS011;10759;51.982;9.232;2023-05-07T14:40:44;8.05;;;7.45;;
21202;SDS011;10759;51.982;9.232;2023-05-07T14:43:12;8.45;;;7.85;;
21202;SDS011;10759;51.982;9.232;2023-05-07T14:45:40;8.73;;;8.02;;
21202;SDS011;10759;51.982;9.232;2023-05-07T14:48:08;9.45;;;8.77;;
21202;SDS011;10759;51.982;9.232;2023-05-07T14:50:42;12.15;;;11.18;;
21202;SDS011;10759;51.982;9.232;2023-05-07T14:53:10;9.13;;;8.37;;
21202;SDS011;10759;51.982;9.232;2023-05-07T14:55:38;9.82;;;9.13;;
21202;SDS011;10759;51.982;9.232;2023-05-07T14:58:07;11.13;;;10.27;;
21202;SDS011;10759;51.982;9.232;2023-05-07T15:00:35;10.65;;;9.73;;
21202;SDS011;10759;51.982;9.232;2023-05-07T15:03:05;10.82;;;10.02;;
21202;SDS011;10759;51.982;9.232;2023-05-07T15:05:34;12.05;;;11.00;;
21202;SDS011;10759;51.982;9.232;2023-05-07T15:08:04;11.27;;;10.45;;